Time;durP1;ratioP1;P1;durP2;ratioP2;P2;SDS_P1;SDS_P2;PMS_P1;PMS_P2;Temp;Humidity;BMP_temperature;BMP_pressure;BME280_temperature;BME280_humidity;BME280_pressure;Samples;Min_cycle;Max_cycle;Signal;HPM_P1;HPM_P2
2022/05/21 00:01:32;;;;;;;7.85;4.43;;;;;;;19.63;100.00;98959.75;5112800;28;20023;-77
2022/05/21 00:03:58;;;;;;;5.15;4.50;;;;;;;19.60;100.00;98971.44;5112872;28;20030;-77
2022/05/21 00:06:23;;;;;;;5.28;3.95;;;;;;;19.58;100.00;98975.19;5112705;28;20023;-77
2022/05/21 00:08:49;;;;;;;6.97;4.40;;;;;;;19.61;100.00;98998.69;5112842;28;20036;-77
2022/05/21 00:11:14;;;;;;;4.82;4.32;;;;;;;19.55;100.00;98997.44;5112578;28;20051;-77
2022/05/21 00:13:40;;;;;;;5.85;4.07;;;;;;;19.57;100.00;98992.00;5112614;28;20034;-77
2022/05/21 00:16:05;;;;;;;5.45;4.47;;;;;;;19.61;100.00;98994.25;5112485;28;20350;-77
2022/05/21 00:18:31;;;;;;;5.28;4.40;;;;;;;19.58;100.00;98998.94;5112549;28;20080;-76
2022/05/21 00:20:57;;;;;;;6.50;4.70;;;;;;;19.56;100.00;99004.38;5112700;28;20094;-77
2022/05/21 00:23:31;;;;;;;5.38;4.88;;;;;;;19.56;100.00;99004.38;5111923;28;20033;-77
2022/05/21 00:26:00;;;;;;;4.68;4.18;;;;;;;19.54;100.00;99000.22;5112458;28;20495;-77
2022/05/21 00:28:26;;;;;;;4.70;4.30;;;;;;;19.43;100.00;98986.22;5112181;28;20031;-77
2022/05/21 00:30:52;;;;;;;6.55;4.88;;;;;;;19.45;100.00;98999.28;5112370;28;20027;-77
2022/05/21 00:33:18;;;;;;;5.32;4.55;;;;;;;19.39;100.00;98986.66;5112314;28;20036;-77
2022/05/21 00:35:44;;;;;;;5.20;4.43;;;;;;;19.32;100.00;98988.19;5112527;28;20096;-77
2022/05/21 00:38:10;;;;;;;5.05;4.35;;;;;;;19.31;100.00;98999.75;5112382;28;20472;-77
2022/05/21 00:40:37;;;;;;;5.45;4.32;;;;;;;19.23;100.00;98997.81;5112474;28;20026;-77
2022/05/21 00:43:03;;;;;;;4.55;4.15;;;;;;;19.22;100.00;98988.22;5112173;28;20051;-76
2022/05/21 00:45:30;;;;;;;5.15;4.15;;;;;;;19.20;100.00;98998.09;5111858;28;20704;-77
2022/05/21 00:47:56;;;;;;;10.82;4.40;;;;;;;19.14;100.00;98996.84;5111077;28;20035;-77
2022/05/21 00:50:28;;;;;;;6.00;4.82;;;;;;;19.05;100.00;98986.31;5112056;28;20051;-77
2022/05/21 00:52:53;;;;;;;6.30;4.82;;;;;;;18.99;100.00;98992.16;5112244;28;20027;-77
2022/05/21 00:55:32;;;;;;;4.95;4.22;;;;;;;19.03;100.00;99001.44;5111925;28;20076;-77
2022/05/21 01:00:51;;;;;;;5.35;4.78;;;;;;;18.90;100.00;99009.66;5112161;28;20101;-77
2022/05/21 01:03:17;;;;;;;5.13;4.03;;;;;;;18.90;100.00;99007.03;5111814;28;20472;-77
2022/05/21 01:05:46;;;;;;;6.55;4.70;;;;;;;18.92;100.00;98997.19;5112147;28;20034;-76
2022/05/21 01:08:12;;;;;;;6.78;4.25;;;;;;;19.01;100.00;99017.44;5111745;28;20027;-77
2022/05/21 01:10:43;;;;;;;7.57;4.28;;;;;;;18.98;100.00;99009.78;5112528;28;20105;-76
2022/05/21 01:13:14;;;;;;;4.75;4.25;;;;;;;19.02;100.00;99019.09;5110811;28;20392;-77
2022/05/21 01:15:45;;;;;;;5.03;4.55;;;;;;;18.99;100.00;99027.28;5112087;28;20052;-76
2022/05/21 01:18:11;;;;;;;5.30;3.90;;;;;;;18.94;100.00;99021.59;5110652;28;20500;-77
2022/05/21 01:20:38;;;;;;;6.68;3.83;;;;;;;18.97;100.00;99029.25;5111709;28;20080;-77
2022/05/21 01:23:04;;;;;;;5.28;3.88;;;;;;;18.90;100.00;99033.41;5110601;28;20430;-77
2022/05/21 01:25:31;;;;;;;7.40;3.78;;;;;;;18.89;100.00;99034.38;5111810;28;20046;-76
2022/05/21 01:27:58;;;;;;;4.32;3.70;;;;;;;18.80;100.00;99035.22;5111987;28;20185;-76
2022/05/21 01:30:36;;;;;;;6.68;4.13;;;;;;;18.75;100.00;99032.16;5111686;28;20020;-76
2022/05/21 01:33:04;;;;;;;4.03;3.63;;;;;;;18.74;100.00;99043.69;5111764;28;20106;-77
2022/05/21 01:35:30;;;;;;;4.25;3.60;;;;;;;18.71;100.00;99042.16;5115112;28;20032;-77
2022/05/21 01:37:56;;;;;;;5.78;3.42;;;;;;;18.79;100.00;99046.72;5114512;28;20384;-77
2022/05/21 01:40:22;;;;;;;4.78;3.80;;;;;;;18.83;100.00;99051.59;5115524;28;20081;-77
2022/05/21 01:45:31;;;;;;;4.60;3.50;;;;;;;18.93;100.00;99055.06;5115418;28;20042;-76
2022/05/21 01:47:57;;;;;;;4.60;3.13;;;;;;;18.95;100.00;99055.75;5115639;28;20016;-76
2022/05/21 01:50:22;;;;;;;4.05;3.33;;;;;;;18.97;100.00;99054.81;5115427;28;20480;-77
2022/05/21 01:52:47;;;;;;;4.05;3.38;;;;;;;18.97;100.00;99052.16;5115599;28;20058;-76
2022/05/21 01:55:13;;;;;;;4.38;3.15;;;;;;;18.96;100.00;99046.03;5114144;28;20024;-77
2022/05/21 01:57:39;;;;;;;4.03;3.50;;;;;;;18.98;100.00;99049.38;5115236;28;20051;-77
2022/05/21 02:00:06;;;;;;;3.50;3.20;;;;;;;18.93;100.00;99059.53;5115203;28;20020;-76
2022/05/21 02:02:33;;;;;;;3.72;3.40;;;;;;;18.87;100.00;99060.06;5114531;28;20038;-77
2022/05/21 02:04:58;;;;;;;3.60;3.30;;;;;;;18.91;100.00;99064.09;5115267;28;20384;-77
2022/05/21 02:07:24;;;;;;;8.02;3.13;;;;;;;18.93;100.00;99072.72;5091805;28;20032;-76
2022/05/21 02:09:49;;;;;;;4.90;3.45;;;;;;;18.91;100.00;99074.66;5075045;28;20038;-76
2022/05/21 02:12:16;;;;;;;6.07;3.40;;;;;;;18.90;100.00;99087.00;5092072;28;20075;-77
2022/05/21 02:14:43;;;;;;;6.03;3.35;;;;;;;18.90;100.00;99089.66;5092060;28;20028;-77
2022/05/21 02:17:08;;;;;;;6.18;3.50;;;;;;;18.89;100.00;99087.16;5092022;28;20036;-77
2022/05/21 02:19:34;;;;;;;4.15;3.33;;;;;;;18.87;100.00;99081.16;5091764;28;20035;-76
2022/05/21 02:21:59;;;;;;;6.22;3.80;;;;;;;18.83;100.00;99077.13;5092237;28;20578;-76
2022/05/21 02:24:25;;;;;;;6.55;4.60;;;;;;;18.81;100.00;99087.00;5091565;28;20032;-77
2022/05/21 02:26:50;;;;;;;4.03;3.15;;;;;;;18.81;100.00;99093.13;5091761;28;20540;-76
2022/05/21 02:29:18;;;;;;;3.80;3.42;;;;;;;18.82;100.00;99101.88;5091815;28;20028;-76
2022/05/21 02:31:43;;;;;;;4.85;3.60;;;;;;;18.79;100.00;99108.25;5091752;28;20039;-76
2022/05/21 02:34:09;;;;;;;5.13;3.60;;;;;;;18.83;100.00;99119.34;5091941;28;20048;-76
2022/05/21 02:39:30;;;;;;;5.05;4.13;;;;;;;18.81;100.00;99137.16;5111376;28;20043;-76
2022/05/21 02:42:00;;;;;;;4.30;3.90;;;;;;;18.79;100.00;99142.53;5113127;28;20473;-77
2022/05/21 02:44:27;;;;;;;5.70;4.10;;;;;;;18.76;100.00;99140.19;5113690;27;20487;-77
2022/05/21 02:46:52;;;;;;;4.75;3.90;;;;;;;18.73;100.00;99140.44;5114401;28;20030;-77
2022/05/21 02:49:19;;;;;;;6.93;4.30;;;;;;;18.64;100.00;99141.25;5114161;28;20051;-77
2022/05/21 02:51:44;;;;;;;6.20;3.90;;;;;;;18.61;100.00;99152.06;5114345;28;20492;-77
2022/05/21 02:54:14;;;;;;;8.95;3.92;;;;;;;18.50;100.00;99145.09;5112769;28;20114;-77
2022/05/21 02:56:49;;;;;;;4.05;3.58;;;;;;;18.45;100.00;99168.38;5112530;28;20034;-77
2022/05/21 02:59:15;;;;;;;3.80;3.40;;;;;;;18.36;100.00;99171.81;5114086;28;20031;-77
2022/05/21 03:01:41;;;;;;;4.10;2.95;;;;;;;18.22;100.00;99156.34;5112563;28;20024;-77
2022/05/21 03:04:07;;;;;;;3.70;3.40;;;;;;;18.17;100.00;99165.50;5114027;28;20058;-77
2022/05/21 03:06:34;;;;;;;4.78;3.20;;;;;;;18.14;100.00;99183.38;5113851;28;20027;-77
2022/05/21 03:11:43;;;;;;;3.15;2.85;;;;;;;18.02;100.00;99179.97;5113704;28;20047;-77
2022/05/21 03:14:09;;;;;;;3.50;3.20;;;;;;;17.97;100.00;99190.06;5113820;28;20027;-77
2022/05/21 03:16:34;;;;;;;3.08;2.65;;;;;;;17.99;100.00;99192.56;5112150;28;20031;-77
2022/05/21 03:19:00;;;;;;;3.70;3.20;;;;;;;17.90;100.00;99181.00;5113717;28;20118;-77
2022/05/21 03:21:25;;;;;;;3.60;3.10;;;;;;;17.91;100.00;99199.34;5113331;28;20058;-77
2022/05/21 03:23:50;;;;;;;5.78;3.10;;;;;;;17.90;100.00;99208.19;5113515;28;20388;-77
2022/05/21 03:26:16;;;;;;;5.70;2.70;;;;;;;17.87;100.00;99205.00;5113716;28;20084;-77
2022/05/21 03:28:41;;;;;;;3.45;2.72;;;;;;;17.77;100.00;99186.47;5113277;27;20031;-77
2022/05/21 03:31:06;;;;;;;3.08;2.80;;;;;;;17.73;100.00;99203.47;5113367;28;20106;-77
2022/05/21 03:33:32;;;;;;;3.25;2.88;;;;;;;17.66;100.00;99208.41;5113141;28;20438;-77
2022/05/21 03:35:57;;;;;;;2.92;2.65;;;;;;;17.65;100.00;99219.06;5113199;28;20028;-77
2022/05/21 03:38:23;;;;;;;3.10;2.80;;;;;;;17.67;100.00;99225.88;5113273;28;20533;-77
2022/05/21 03:40:48;;;;;;;3.05;2.75;;;;;;;17.66;100.00;99239.19;5113420;28;20027;-77
2022/05/21 03:43:13;;;;;;;4.68;3.10;;;;;;;17.63;100.00;99227.09;5113024;28;20024;-77
2022/05/21 03:45:39;;;;;;;4.35;2.47;;;;;;;17.62;100.00;99243.88;5112784;28;20038;-77
2022/05/21 03:48:08;;;;;;;7.10;3.22;;;;;;;17.56;100.00;99240.88;5113134;28;20110;-77
2022/05/21 03:50:33;;;;;;;2.60;2.40;;;;;;;17.47;100.00;99237.22;5111225;28;20050;-77
2022/05/21 03:53:01;;;;;;;2.78;2.30;;;;;;;17.45;100.00;99247.88;5113183;28;20031;-77
2022/05/21 03:55:27;;;;;;;2.28;2.08;;;;;;;17.40;100.00;99233.41;5112894;28;20103;-76
2022/05/21 03:57:52;;;;;;;2.75;1.90;;;;;;;17.37;100.00;99249.47;5112242;28;20024;-77
2022/05/21 04:00:19;;;;;;;3.92;2.00;;;;;;;17.42;100.00;99252.56;5113156;28;20473;-77
2022/05/21 04:02:46;;;;;;;2.33;1.80;;;;;;;17.44;98.83;99258.53;5112576;28;20102;-77
2022/05/21 04:05:12;;;;;;;2.35;2.00;;;;;;;17.59;97.07;99245.91;5112638;28;20023;-77
2022/05/21 04:07:39;;;;;;;1.77;1.60;;;;;;;18.31;95.64;99266.28;5112657;28;20532;-77
2022/05/21 04:10:06;;;;;;;3.78;1.70;;;;;;;19.78;88.14;99269.28;5112835;28;20115;-77
2022/05/21 04:12:32;;;;;;;3.25;1.67;;;;;;;21.60;79.66;99266.13;5112348;28;20031;-77
2022/05/21 04:14:57;;;;;;;1.88;1.42;;;;;;;22.94;73.15;99261.44;5111287;28;20032;-77
2022/05/21 04:17:23;;;;;;;3.45;1.20;;;;;;;23.14;70.03;99278.78;5112540;28;20460;-77
2022/05/21 04:19:48;;;;;;;0.90;0.90;;;;;;;22.85;70.17;99286.28;5112274;28;20051;-77
2022/05/21 04:22:13;;;;;;;1.15;1.10;;;;;;;22.47;71.25;99269.81;5112773;28;20106;-77
2022/05/21 04:24:39;;;;;;;1.38;1.10;;;;;;;22.30;70.57;99270.69;5112356;28;20392;-78
2022/05/21 04:27:07;;;;;;;2.03;1.15;;;;;;;22.25;70.92;99265.88;5112305;28;20073;-77
2022/05/21 04:29:33;;;;;;;1.23;1.13;;;;;;;22.60;70.42;99287.97;5111962;28;20029;-77
2022/05/21 04:31:59;;;;;;;2.88;1.20;;;;;;;23.65;67.17;99281.44;5112315;28;20020;-77
2022/05/21 04:34:24;;;;;;;3.30;1.10;;;;;;;25.37;61.49;99274.78;5112218;28;20031;-77
2022/05/21 04:36:49;;;;;;;1.67;1.20;;;;;;;26.77;55.80;99290.50;5112381;28;20047;-78
2022/05/21 04:39:15;;;;;;;2.38;1.10;;;;;;;27.29;51.11;99286.84;5112695;28;20495;-77
2022/05/21 04:41:40;;;;;;;1.10;1.00;;;;;;;26.71;49.97;99304.56;5111969;28;20030;-78
2022/05/21 04:44:07;;;;;;;1.75;1.15;;;;;;;25.85;51.54;99290.66;5112175;28;20049;-78
2022/05/21 04:46:35;;;;;;;1.38;1.08;;;;;;;25.23;53.38;99301.34;5111872;28;20020;-78
2022/05/21 04:49:00;;;;;;;1.17;1.17;;;;;;;24.81;55.14;99303.28;5112067;28;20105;-78
2022/05/21 04:51:26;;;;;;;1.85;0.93;;;;;;;24.70;55.73;99310.84;5112004;28;20024;-77
2022/05/21 04:53:51;;;;;;;0.85;0.80;;;;;;;24.94;53.91;99329.38;5112219;28;20105;-77
2022/05/21 04:56:17;;;;;;;1.13;0.98;;;;;;;26.13;50.59;99317.63;5112222;28;20030;-77
2022/05/21 04:58:42;;;;;;;0.90;0.90;;;;;;;27.34;47.52;99319.19;5111841;28;20111;-78
2022/05/21 05:01:08;;;;;;;1.00;1.00;;;;;;;28.23;43.04;99326.91;5112108;28;20519;-78
2022/05/21 05:03:34;;;;;;;1.77;1.00;;;;;;;28.43;42.14;99319.91;5111663;28;20091;-77
2022/05/21 05:06:00;;;;;;;1.52;1.23;;;;;;;27.57;42.32;99322.56;5110951;28;20142;-77
2022/05/21 05:08:26;;;;;;;1.10;1.10;;;;;;;26.59;44.70;99326.41;5113724;28;20468;-78
2022/05/21 05:10:52;;;;;;;1.10;1.00;;;;;;;26.11;46.21;99336.47;5116037;28;20110;-78
2022/05/21 05:13:18;;;;;;;0.85;0.85;;;;;;;25.59;46.59;99345.13;5116178;28;20099;-78
2022/05/21 05:15:44;;;;;;;0.73;0.73;;;;;;;25.60;47.29;99338.78;5115766;28;20063;-78
2022/05/21 05:18:27;;;;;;;3.50;1.05;;;;;;;26.19;45.55;99329.41;5115946;28;20034;-78
2022/05/21 05:20:52;;;;;;;2.17;1.10;;;;;;;28.12;40.47;99322.94;5116155;28;20627;-78
2022/05/21 05:23:18;;;;;;;2.40;0.90;;;;;;;29.98;37.08;99330.13;5116013;28;20024;-78
2022/05/21 05:25:43;;;;;;;4.38;1.10;;;;;;;30.67;33.58;99338.81;5115662;28;20114;-78
2022/05/21 05:28:16;;;;;;;0.90;0.63;;;;;;;29.76;34.92;99345.59;5114662;28;20120;-78
2022/05/21 05:30:42;;;;;;;1.65;1.20;;;;;;;28.35;37.77;99333.41;5115493;28;20465;-78
2022/05/21 05:33:08;;;;;;;2.00;1.05;;;;;;;27.44;39.46;99356.38;5115966;28;20042;-78
2022/05/21 05:35:33;;;;;;;1.92;1.23;;;;;;;26.75;40.63;99351.28;5115774;28;20035;-78
2022/05/21 05:37:58;;;;;;;2.67;1.08;;;;;;;26.43;41.95;99360.41;5115728;28;20034;-78
2022/05/21 05:40:24;;;;;;;1.98;1.20;;;;;;;27.05;41.06;99362.81;5115547;28;20024;-78
2022/05/21 05:42:50;;;;;;;2.08;1.15;;;;;;;28.45;37.44;99362.59;5115229;28;20031;-77
2022/05/21 05:45:16;;;;;;;1.40;1.20;;;;;;;29.26;35.92;99366.44;5115216;28;20035;-79
2022/05/21 05:47:42;;;;;;;3.28;1.20;;;;;;;28.55;36.61;99366.59;5115504;28;20031;-80
2022/05/21 05:50:08;;;;;;;2.10;1.48;;;;;;;26.64;39.54;99373.13;5115427;28;20492;-80
2022/05/21 05:52:34;;;;;;;0.93;0.90;;;;;;;24.86;42.59;99359.56;5115049;28;20020;-80
2022/05/21 05:54:59;;;;;;;1.75;1.08;;;;;;;23.56;45.41;99370.13;5115222;28;20109;-79
2022/05/21 05:57:25;;;;;;;1.00;1.00;;;;;;;22.59;47.81;99368.59;5115057;28;20023;-79
2022/05/21 05:59:50;;;;;;;3.47;1.38;;;;;;;22.03;49.90;99380.34;5114801;28;20037;-80
2022/05/21 06:05:06;;;;;;;1.40;1.05;;;;;;;23.43;48.35;99386.50;5114980;28;20031;-80
2022/05/21 06:07:31;;;;;;;1.48;1.10;;;;;;;24.06;46.93;99364.75;5114673;28;20472;-80
2022/05/21 06:10:01;;;;;;;1.42;1.25;;;;;;;24.59;45.83;99373.25;5114917;28;20028;-80
2022/05/21 06:12:27;;;;;;;6.57;1.48;;;;;;;24.97;44.62;99387.66;5114782;28;20035;-80
2022/05/21 06:14:53;;;;;;;1.13;0.90;;;;;;;25.30;43.77;99387.59;5115038;28;20064;-80
2022/05/21 06:17:19;;;;;;;1.58;1.10;;;;;;;25.54;43.78;99386.69;5113608;28;20063;-80
2022/05/21 06:19:44;;;;;;;0.90;0.90;;;;;;;25.33;43.92;99390.75;5114112;28;20031;-80
2022/05/21 06:22:09;;;;;;;2.00;1.33;;;;;;;24.61;44.36;99413.88;5114728;28;20434;-80
2022/05/21 06:24:36;;;;;;;3.17;1.48;;;;;;;23.79;44.85;99410.25;5114318;28;20031;-80
2022/05/21 06:27:02;;;;;;;1.85;1.30;;;;;;;23.02;46.09;99399.59;5114621;28;20088;-80
2022/05/21 06:29:28;;;;;;;1.15;1.10;;;;;;;22.35;47.27;99423.13;5114649;28;20384;-77
2022/05/21 06:31:53;;;;;;;1.30;1.20;;;;;;;21.76;49.00;99410.41;5114171;28;20019;-78
2022/05/21 06:34:19;;;;;;;1.75;1.20;;;;;;;21.34;50.67;99409.06;5114508;28;20034;-78
2022/05/21 06:36:44;;;;;;;3.33;1.10;;;;;;;21.20;51.80;99416.66;5114032;28;20084;-77
2022/05/21 06:39:10;;;;;;;3.88;1.40;;;;;;;22.44;50.07;99404.63;5114274;28;20024;-78
2022/05/21 06:41:35;;;;;;;1.58;1.20;;;;;;;25.35;44.26;99399.41;5114434;28;20464;-78
2022/05/21 06:44:00;;;;;;;2.03;1.13;;;;;;;25.57;42.88;99399.66;5114277;28;20030;-78
2022/05/21 06:46:26;;;;;;;1.17;1.10;;;;;;;27.79;38.18;99406.41;5114080;28;20387;-78
2022/05/21 06:48:51;;;;;;;2.95;1.52;;;;;;;27.47;37.40;99407.63;5114104;28;20055;-78
2022/05/21 06:51:17;;;;;;;2.22;1.38;;;;;;;27.71;37.68;99424.38;5114536;28;20418;-78
2022/05/21 06:53:42;;;;;;;1.13;1.05;;;;;;;29.41;35.01;99408.38;5113899;28;20093;-78
2022/05/21 06:56:10;;;;;;;2.05;1.20;;;;;;;30.80;32.47;99406.91;5113995;28;20028;-78
2022/05/21 06:58:36;;;;;;;1.58;1.00;;;;;;;30.77;31.42;99419.94;5113872;28;20043;-78
2022/05/21 07:01:01;;;;;;;1.35;0.70;;;;;;;29.14;33.00;99405.56;5112901;28;20066;-78
2022/05/21 07:03:27;;;;;;;3.10;0.90;;;;;;;28.25;34.20;99410.59;5114084;28;20639;-77
2022/05/21 07:08:36;;;;;;;1.20;1.10;;;;;;;27.00;36.38;99411.47;5113888;28;20093;-78
2022/05/21 07:11:02;;;;;;;1.35;1.25;;;;;;;26.47;37.79;99416.00;5114089;28;20031;-78
2022/05/21 07:13:30;;;;;;;1.75;1.20;;;;;;;25.63;38.68;99414.97;5114006;28;20114;-78
2022/05/21 07:15:55;;;;;;;1.30;1.05;;;;;;;24.58;40.93;99427.53;5112304;28;20051;-78
2022/05/21 07:18:22;;;;;;;2.22;1.40;;;;;;;24.91;40.96;99430.16;5114094;28;20124;-78
2022/05/21 07:20:48;;;;;;;1.20;1.10;;;;;;;24.24;41.65;99432.97;5112073;28;20446;-78
2022/05/21 07:23:13;;;;;;;1.45;1.20;;;;;;;23.90;42.37;99433.88;5113374;28;20027;-78
2022/05/21 07:25:40;;;;;;;3.22;1.00;;;;;;;25.01;41.53;99436.13;5113158;28;20484;-78
2022/05/21 07:28:07;;;;;;;4.18;1.33;;;;;;;26.43;38.60;99430.69;5113441;28;20030;-78
2022/05/21 07:30:33;;;;;;;1.88;1.33;;;;;;;27.80;36.31;99437.50;5113603;27;20020;-78
2022/05/21 07:32:58;;;;;;;2.28;1.15;;;;;;;27.35;35.32;99433.19;5111119;28;20092;-78
2022/05/21 07:35:26;;;;;;;2.00;1.10;;;;;;;26.47;37.31;99444.53;5111934;28;20092;-78
2022/05/21 07:37:52;;;;;;;1.40;0.95;;;;;;;26.20;37.65;99446.69;5113009;28;20118;-78
2022/05/21 07:40:20;;;;;;;2.33;1.17;;;;;;;25.13;39.06;99424.97;5113257;28;20508;-78
2022/05/21 07:42:46;;;;;;;1.83;1.10;;;;;;;24.22;41.05;99450.91;5113121;28;20495;-78
2022/05/21 07:45:14;;;;;;;3.50;1.52;;;;;;;25.06;40.65;99457.75;5113515;28;20031;-78
2022/05/21 07:47:40;;;;;;;1.85;1.15;;;;;;;24.45;40.72;99441.31;5113245;28;20476;-78
2022/05/21 07:50:07;;;;;;;1.20;1.15;;;;;;;23.62;42.11;99459.84;5111797;28;20058;-78
2022/05/21 07:52:32;;;;;;;4.20;1.58;;;;;;;23.02;43.55;99465.16;5113163;28;20024;-77
2022/05/21 07:54:58;;;;;;;1.40;1.30;;;;;;;22.39;44.90;99459.00;5113191;28;20034;-78
2022/05/21 07:57:24;;;;;;;1.30;1.20;;;;;;;22.85;44.79;99465.00;5112923;28;20042;-78
2022/05/21 07:59:49;;;;;;;1.17;1.13;;;;;;;24.56;41.59;99477.44;5111500;28;20439;-77
2022/05/21 08:02:17;;;;;;;1.65;1.35;;;;;;;26.51;37.51;99448.53;5112962;27;20022;-78
2022/05/21 08:04:45;;;;;;;1.33;0.82;;;;;;;27.36;34.70;99453.56;5112540;28;20084;-78
2022/05/21 08:07:10;;;;;;;1.35;1.27;;;;;;;26.82;35.45;99456.44;5111494;28;20391;-78
2022/05/21 08:09:35;;;;;;;1.15;1.08;;;;;;;26.66;35.92;99475.25;5112749;28;20106;-78
2022/05/21 08:12:02;;;;;;;1.00;1.00;;;;;;;25.82;36.40;99478.59;5112509;28;20122;-78
2022/05/21 08:14:28;;;;;;;1.20;1.10;;;;;;;24.54;38.73;99474.94;5111409;28;20035;-78
2022/05/21 08:16:54;;;;;;;1.60;1.08;;;;;;;23.62;40.64;99481.94;5112435;28;20019;-78
2022/05/21 08:19:19;;;;;;;1.27;1.17;;;;;;;23.14;42.39;99483.34;5112574;28;20088;-78
2022/05/21 08:21:45;;;;;;;2.42;1.13;;;;;;;23.09;42.36;99483.00;5112266;28;20434;-78
2022/05/21 08:26:57;;;;;;;3.85;1.27;;;;;;;22.89;42.74;99466.38;5112537;28;20085;-78
2022/05/21 08:29:34;;;;;;;1.80;1.27;;;;;;;22.55;43.01;99490.16;5112532;27;20050;-78
2022/05/21 08:32:02;;;;;;;2.33;1.45;;;;;;;22.36;43.24;99480.50;5112207;28;20080;-77
2022/05/21 08:34:28;;;;;;;2.92;1.50;;;;;;;22.29;43.09;99470.66;5112503;28;20453;-77
2022/05/21 08:36:53;;;;;;;2.55;1.42;;;;;;;22.50;43.10;99486.28;5112272;28;20027;-77
2022/05/21 08:39:21;;;;;;;1.35;1.25;;;;;;;22.69;43.82;99487.94;5112512;28;20036;-77
2022/05/21 08:41:56;;;;;;;0.95;0.95;;;;;;;22.74;44.05;99481.19;5110793;28;20028;-77
2022/05/21 08:44:39;;;;;;;1.10;1.10;;;;;;;22.68;43.40;99487.13;5111719;28;20032;-77
2022/05/21 08:47:16;;;;;;;2.83;1.38;;;;;;;22.48;43.12;99490.91;5112281;28;20035;-77
2022/05/21 08:50:03;;;;;;;3.13;1.25;;;;;;;22.59;43.10;99494.19;5112047;28;20043;-77
2022/05/21 08:52:46;;;;;;;1.95;1.00;;;;;;;22.66;42.86;99503.19;5112263;28;20020;-77
2022/05/21 08:55:17;;;;;;;4.72;1.58;;;;;;;22.62;43.50;99496.50;5112429;28;20028;-77
2022/05/21 08:58:02;;;;;;;1.30;1.20;;;;;;;22.68;43.85;99508.34;5112089;28;20035;-77
2022/05/21 09:00:35;;;;;;;1.38;1.23;;;;;;;22.67;44.24;99496.06;5112223;28;20034;-77
2022/05/21 09:03:00;;;;;;;3.00;1.38;;;;;;;22.49;44.46;99505.84;5111739;28;20016;-77
2022/05/21 09:05:26;;;;;;;2.33;1.33;;;;;;;22.40;44.71;99504.94;5112293;28;20081;-77
2022/05/21 09:08:25;;;;;;;3.17;1.23;;;;;;;22.33;45.03;99507.38;5111977;28;20589;-78
2022/05/21 09:11:01;;;;;;;1.30;1.20;;;;;;;22.21;45.08;99495.28;5111943;28;20118;-77
2022/05/21 09:13:47;;;;;;;1.85;1.30;;;;;;;22.37;44.04;99521.16;5110687;28;20401;-77
2022/05/21 09:18:59;;;;;;;1.58;1.08;;;;;;;22.44;43.29;99505.47;5111863;28;20099;-77
2022/05/21 09:21:27;;;;;;;1.35;1.20;;;;;;;22.40;42.88;99512.88;5111021;28;20107;-79
2022/05/21 09:23:59;;;;;;;1.45;1.35;;;;;;;22.24;43.48;99502.94;5110290;28;20444;-79
2022/05/21 09:26:27;;;;;;;1.70;1.40;;;;;;;22.02;42.82;99490.06;5112120;28;20040;-79
2022/05/21 09:29:12;;;;;;;1.88;1.10;;;;;;;21.73;42.55;99517.56;5110389;28;20020;-79
2022/05/21 09:31:37;;;;;;;1.42;1.33;;;;;;;21.57;43.24;99519.97;5111898;28;20444;-79
2022/05/21 09:34:24;;;;;;;1.05;1.05;;;;;;;21.43;42.93;99532.72;5111530;28;20106;-78
2022/05/21 09:36:50;;;;;;;3.78;1.50;;;;;;;21.51;43.33;99523.22;5111793;28;20023;-79
2022/05/21 09:39:48;;;;;;;2.92;1.35;;;;;;;21.61;43.76;99539.91;5111930;28;20024;-79
2022/05/21 09:45:24;;;;;;;1.42;1.33;;;;;;;21.77;43.04;99526.06;5028840;28;20060;-79
2022/05/21 09:48:05;;;;;;;1.92;1.30;;;;;;;21.85;42.92;99542.06;5028544;28;20033;-79
2022/05/21 09:50:42;;;;;;;2.83;1.23;;;;;;;21.98;42.78;99537.25;5028720;28;20053;-79
2022/05/21 09:53:22;;;;;;;1.52;1.42;;;;;;;22.19;42.28;99542.34;5028521;28;20041;-79
2022/05/21 09:56:03;;;;;;;2.20;1.25;;;;;;;22.25;42.67;99528.50;5030725;28;20060;-79
2022/05/21 09:58:33;;;;;;;1.42;1.33;;;;;;;22.22;42.61;99552.66;5032246;28;20149;-79
2022/05/21 10:00:58;;;;;;;3.70;1.40;;;;;;;22.07;41.86;99540.84;5032081;28;20057;-79
2022/05/21 10:03:45;;;;;;;2.33;1.40;;;;;;;22.03;41.98;99553.56;5015537;28;20163;-78
2022/05/21 10:06:26;;;;;;;1.55;1.45;;;;;;;22.15;42.49;99557.72;5032152;28;20034;-79
2022/05/21 10:11:53;;;;;;;1.67;1.48;;;;;;;22.27;42.08;99557.53;5032326;28;20049;-79
2022/05/21 10:14:34;;;;;;;3.97;1.73;;;;;;;22.23;40.83;99574.72;5031832;28;20112;-79
2022/05/21 10:17:04;;;;;;;3.65;1.45;;;;;;;22.12;40.81;99557.13;5028072;28;20502;-79
2022/05/21 10:19:46;;;;;;;;;;;;;;;21.93;40.50;99561.56;5115439;28;20054;-79
2022/05/21 10:22:36;;;;;;;3.25;1.50;;;;;;;21.76;39.96;99580.91;5113542;28;19911;-79
2022/05/21 10:25:12;;;;;;;3.05;1.35;;;;;;;21.77;40.47;99563.16;5114689;28;20034;-79
2022/05/21 10:27:47;;;;;;;9.65;1.70;;;;;;;21.85;40.50;99589.78;5113550;28;20023;-79
2022/05/21 10:30:19;;;;;;;1.90;1.58;;;;;;;21.87;40.40;99601.94;5114722;28;20066;-79
2022/05/21 10:32:57;;;;;;;2.50;1.40;;;;;;;21.79;40.35;99588.56;5114662;28;20107;-78
2022/05/21 10:35:59;;;;;;;2.25;1.73;;;;;;;21.69;41.10;99595.69;5114898;28;20031;-79
2022/05/21 10:38:45;;;;;;;1.98;1.55;;;;;;;21.68;41.22;99584.25;5114616;28;20015;-79
2022/05/21 10:41:13;;;;;;;2.10;1.58;;;;;;;21.58;41.39;99599.38;5114264;28;20046;-79
2022/05/21 10:44:00;;;;;;;1.90;1.65;;;;;;;21.56;41.78;99595.19;5113330;28;20027;-79
2022/05/21 10:46:47;;;;;;;1.50;1.40;;;;;;;21.67;41.81;99592.38;5114372;28;20027;-79
2022/05/21 10:49:18;;;;;;;2.35;1.48;;;;;;;21.82;41.53;99587.44;5114089;28;20064;-78
2022/05/21 10:51:55;;;;;;;2.67;1.35;;;;;;;21.96;41.04;99596.75;5114304;28;20108;-78
2022/05/21 10:54:46;;;;;;;2.92;1.30;;;;;;;22.02;40.74;99582.88;5114310;28;20369;-79
2022/05/21 10:57:21;;;;;;;3.80;1.48;;;;;;;22.01;40.05;99571.44;5113758;28;20103;-79
2022/05/21 11:00:05;;;;;;;1.75;1.45;;;;;;;22.02;39.78;99564.31;5114135;28;20034;-79
2022/05/21 11:02:52;;;;;;;2.13;1.50;;;;;;;22.07;40.41;99583.28;5114383;28;20028;-79
2022/05/21 11:05:40;;;;;;;3.95;1.60;;;;;;;22.16;41.17;99596.56;5114090;28;20032;-79
2022/05/21 11:08:08;;;;;;;1.30;1.20;;;;;;;22.29;40.36;99587.38;5113740;28;20430;-79
2022/05/21 11:11:03;;;;;;;2.47;1.38;;;;;;;22.41;40.56;99588.84;5114103;28;20465;-79
2022/05/21 11:13:42;;;;;;;3.22;1.92;;;;;;;22.50;41.15;99592.44;5030909;28;20076;-79
2022/05/21 11:16:08;;;;;;;1.47;1.37;;;;;;;22.57;40.79;99580.25;5030664;28;20033;-79
2022/05/21 11:18:45;;;;;;;3.17;1.50;;;;;;;22.58;40.52;99589.88;5030710;28;20771;-78
2022/05/21 11:21:28;;;;;;;3.60;1.27;;;;;;;22.64;40.45;99576.00;5030520;28;20037;-79
2022/05/21 11:24:09;;;;;;;2.33;1.25;;;;;;;22.49;39.04;99573.03;5030406;28;20096;-79
2022/05/21 11:26:57;;;;;;;1.58;1.40;;;;;;;22.32;39.79;99579.13;5030568;28;20108;-79
2022/05/21 11:29:37;;;;;;;11.45;1.35;;;;;;;22.23;39.85;99583.50;5014078;28;20029;-78
2022/05/21 11:38:04;;;;;;;6.88;1.20;;;;;;;22.12;39.90;99581.91;5030427;28;20390;-79
2022/05/21 11:41:24;;;;;;;1.60;1.30;;;;;;;22.11;39.38;99582.00;5030438;28;20041;-79
2022/05/21 11:44:55;;;;;;;2.33;1.35;;;;;;;21.89;40.12;99583.22;5030224;28;20037;-79
2022/05/21 11:46:48;;;;;;;2.90;1.40;;;;;;;21.74;40.60;99566.09;5030246;28;20151;-79
2022/05/21 11:49:50;;;;;;;5.18;1.60;;;;;;;21.80;40.67;99586.75;5014557;28;20093;-79
2022/05/21 11:52:28;;;;;;;4.57;1.77;;;;;;;21.73;40.66;99577.69;5113192;28;20031;-78
2022/05/21 11:54:53;;;;;;;2.08;1.50;;;;;;;21.75;40.81;99575.75;5112841;28;20444;-79
2022/05/21 11:57:39;;;;;;;1.98;1.02;;;;;;;21.78;40.56;99580.75;5113145;28;20065;-78
2022/05/21 12:00:17;;;;;;;3.08;1.60;;;;;;;21.86;40.27;99573.72;5111362;28;20415;-78
2022/05/21 12:02:54;;;;;;;2.58;1.35;;;;;;;21.90;40.52;99588.38;5111877;28;20118;-78
2022/05/21 12:05:35;;;;;;;3.60;1.48;;;;;;;21.99;40.63;99583.16;5112983;28;20031;-79
2022/05/21 12:08:22;;;;;;;1.20;1.10;;;;;;;22.07;40.52;99580.63;5112603;28;20055;-79
2022/05/21 12:11:04;;;;;;;2.58;1.20;;;;;;;22.09;40.84;99586.63;5112650;28;20042;-78
2022/05/21 12:13:33;;;;;;;4.28;1.40;;;;;;;22.15;40.87;99580.75;5112966;28;20384;-79
2022/05/21 12:16:19;;;;;;;2.00;1.15;;;;;;;22.15;40.01;99578.09;5112532;28;20054;-78
2022/05/21 12:18:48;;;;;;;1.67;1.25;;;;;;;22.13;39.76;99588.88;5049017;28;20041;-79